Time;durP1;ratioP1;P1;durP2;ratioP2;P2;SDS_P1;SDS_P2;PMS_P1;PMS_P2;Temp;Humidity;BMP_temperature;BMP_pressure;BME280_temperature;BME280_humidity;BME280_pressure;Samples;Min_cycle;Max_cycle;Signal;HPM_P1;HPM_P2
2024/01/22 00:00:27;;;;;;;;;;;;;;;7.76;100.00;100871.31;5129448;27;19919;-68
2024/01/22 00:02:53;;;;;;;;;;;;;;;7.63;100.00;100875.66;5104553;27;20325;-69
2024/01/22 00:05:18;;;;;;;;;;;;;;;7.73;100.00;100883.47;5112618;27;19949;-69
2024/01/22 00:07:43;;;;;;;;;;;;;;;7.81;100.00;100853.03;5100503;27;19925;-65
2024/01/22 00:10:09;;;;;;;;;;;;;;;7.70;100.00;100832.19;5112450;27;20006;-66
2024/01/22 00:12:35;;;;;;;;;;;;;;;7.92;100.00;100842.63;5106840;27;19969;-65
2024/01/22 00:15:01;;;;;;;;;;;;;;;7.95;100.00;100800.84;5136003;27;19926;-66
2024/01/22 00:17:26;;;;;;;;;;;;;;;7.92;100.00;100801.72;5110255;27;19919;-65
2024/01/22 00:19:52;;;;;;;;;;;;;;;7.79;100.00;100821.75;5126115;27;19922;-65
2024/01/22 00:22:17;;;;;;;;;;;;;;;7.81;100.00;100813.91;5107561;27;19942;-66
2024/01/22 00:24:42;;;;;;;;;;;;;;;7.70;100.00;100818.25;5108091;27;19944;-65
2024/01/22 00:27:08;;;;;;;;;;;;;;;7.74;100.00;100831.31;5105531;27;20408;-65
2024/01/22 00:29:33;;;;;;;;;;;;;;;7.89;100.00;100838.25;5108215;27;19958;-65
2024/01/22 00:31:59;;;;;;;;;;;;;;;7.95;100.00;100822.59;5104086;27;19923;-66
2024/01/22 00:34:24;;;;;;;;;;;;;;;7.93;100.00;100803.47;5128288;27;20274;-66
2024/01/22 00:36:49;;;;;;;;;;;;;;;7.97;100.00;100793.88;5117186;27;19919;-65
2024/01/22 00:39:15;;;;;;;;;;;;;;;7.87;100.00;100798.25;5112573;27;20012;-65
2024/01/22 00:41:40;;;;;;;;;;;;;;;7.80;100.00;100773.91;5102824;27;19935;-65
2024/01/22 00:44:08;;;;;;;;;;;;;;;7.83;100.00;100765.22;5100068;27;19984;-65
2024/01/22 00:46:33;;;;;;;;;;;;;;;7.96;100.00;100756.50;5103836;27;19927;-66
2024/01/22 00:48:58;;;;;;;;;;;;;;;7.93;100.00;100751.28;5122578;27;20319;-65
2024/01/22 00:51:24;;;;;;;;;;;;;;;7.89;100.00;100727.81;5118177;27;20507;-65
2024/01/22 00:53:49;;;;;;;;;;;;;;;8.00;100.00;100730.38;5106034;27;19923;-65
2024/01/22 00:56:14;;;;;;;;;;;;;;;8.01;100.00;100747.78;5123837;27;20289;-65
2024/01/22 00:58:40;;;;;;;;;;;;;;;7.89;100.00;100736.50;5108694;27;20017;-65
2024/01/22 01:01:08;;;;;;;;;;;;;;;7.94;100.00;100726.06;5105217;27;19926;-65
2024/01/22 01:03:33;;;;;;;;;;;;;;;8.00;100.00;100728.63;5117773;27;20305;-65
2024/01/22 01:05:58;;;;;;;;;;;;;;;7.95;100.00;100744.31;5106085;27;19923;-65
2024/01/22 01:08:23;;;;;;;;;;;;;;;8.04;100.00;100724.28;5110180;27;19919;-66
2024/01/22 01:10:49;;;;;;;;;;;;;;;8.15;100.00;100731.19;5117880;27;19923;-66
2024/01/22 01:13:14;;;;;;;;;;;;;;;8.14;100.00;100715.56;5102160;27;19923;-65
2024/01/22 01:15:40;;;;;;;;;;;;;;;8.21;100.00;100719.00;5113557;27;20638;-65
2024/01/22 01:18:07;;;;;;;;;;;;;;;8.22;100.00;100719.00;5107432;27;19923;-65
2024/01/22 01:20:34;;;;;;;;;;;;;;;8.21;100.00;100732.91;5108365;27;19919;-66
2024/01/22 01:23:00;;;;;;;;;;;;;;;8.29;100.00;100718.09;5101124;28;20267;-66
2024/01/22 01:25:25;;;;;;;;;;;;;;;8.33;99.91;100716.34;5109247;27;19938;-65
2024/01/22 01:27:50;;;;;;;;;;;;;;;8.20;100.00;100718.13;5111806;27;19934;-65
2024/01/22 01:30:16;;;;;;;;;;;;;;;8.28;100.00;100697.22;5111105;27;19919;-66
2024/01/22 01:32:41;;;;;;;;;;;;;;;8.34;99.87;100733.75;5116262;27;19919;-67
2024/01/22 01:35:07;;;;;;;;;;;;;;;8.35;99.45;100711.09;5114365;27;19981;-65
2024/01/22 01:37:32;;;;;;;;;;;;;;;8.43;99.52;100698.88;5108171;27;19924;-66
2024/01/22 01:39:58;;;;;;;;;;;;;;;8.51;99.20;100715.41;5110027;27;19920;-66
2024/01/22 01:42:24;;;;;;;;;;;;;;;8.49;99.12;100683.19;5116239;27;19920;-66
2024/01/22 01:44:52;;;;;;;;;;;;;;;8.46;99.32;100688.44;5114592;27;19941;-70
2024/01/22 01:47:18;;;;;;;;;;;;;;;8.48;99.45;100677.13;5116811;27;20402;-70
2024/01/22 01:49:44;;;;;;;;;;;;;;;8.55;98.90;100674.47;5133523;27;19919;-71
2024/01/22 01:52:10;;;;;;;;;;;;;;;8.53;99.82;100678.84;5145840;27;19916;-65
2024/01/22 01:54:37;;;;;;;;;;;;;;;8.55;98.99;100682.31;5118668;27;19923;-65
2024/01/22 01:57:02;;;;;;;;;;;;;;;8.55;99.37;100664.91;5123631;27;19931;-65
2024/01/22 01:59:27;;;;;;;;;;;;;;;8.58;99.01;100671.88;5111329;27;20004;-66
2024/01/22 02:01:53;;;;;;;;;;;;;;;8.65;98.92;100653.53;5116881;27;19926;-66
2024/01/22 02:04:18;;;;;;;;;;;;;;;8.74;98.82;100643.88;5118756;27;19926;-67
2024/01/22 02:06:43;;;;;;;;;;;;;;;8.61;99.17;100646.56;5115005;27;19920;-65
2024/01/22 02:09:09;;;;;;;;;;;;;;;8.75;98.41;100633.44;5109829;27;19927;-65
2024/01/22 02:11:34;;;;;;;;;;;;;;;8.76;98.33;100640.38;5122954;27;19946;-66
2024/01/22 02:13:59;;;;;;;;;;;;;;;8.77;98.92;100638.63;5115651;27;19927;-70
2024/01/22 02:16:25;;;;;;;;;;;;;;;8.71;99.11;100629.09;5116816;27;20314;-69
2024/01/22 02:18:50;;;;;;;;;;;;;;;8.80;98.98;100620.31;5110337;27;20375;-69
2024/01/22 02:21:15;;;;;;;;;;;;;;;8.75;99.46;100619.47;5120925;27;20001;-70
2024/01/22 02:23:41;;;;;;;;;;;;;;;8.74;99.86;100609.94;5125175;27;19915;-66
2024/01/22 02:26:08;;;;;;;;;;;;;;;8.77;99.74;100595.06;5131211;27;19923;-65
2024/01/22 02:28:33;;;;;;;;;;;;;;;8.71;99.79;100592.53;5130936;27;20006;-65
2024/01/22 02:33:34;;;;;;;;;;;;;;;8.84;99.04;100590.69;5693516;22;19924;-70
2024/01/22 02:35:59;;;;;;;;;;;;;;;9.01;98.83;100556.56;5054283;28;20038;-70
2024/01/22 02:38:25;;;;;;;;;;;;;;;8.82;99.66;100564.56;5027084;28;19936;-70
2024/01/22 02:40:51;;;;;;;;;;;;;;;8.92;99.12;100551.41;5043377;28;19950;-69
2024/01/22 02:43:17;;;;;;;;;;;;;;;8.95;99.12;100560.09;5039660;28;20414;-70
2024/01/22 02:45:42;;;;;;;;;;;;;;;8.97;100.00;100555.69;5047467;28;19960;-69
2024/01/22 02:48:07;;;;;;;;;;;;;;;8.98;100.00;100544.38;5036142;28;19921;-71
2024/01/22 02:50:33;;;;;;;;;;;;;;;8.75;100.00;100533.25;5057971;28;19920;-70
2024/01/22 02:52:58;;;;;;;;;;;;;;;8.69;100.00;100517.66;5061302;28;20031;-70
2024/01/22 02:55:23;;;;;;;;;;;;;;;8.71;100.00;100522.00;5066503;28;20451;-69
2024/01/22 02:57:49;;;;;;;;;;;;;;;8.72;100.00;100507.16;5041654;28;19974;-70
2024/01/22 03:00:14;;;;;;;;;;;;;;;8.71;100.00;100521.13;5037825;28;19927;-71
2024/01/22 03:02:39;;;;;;;;;;;;;;;8.98;100.00;100493.88;5042541;28;20422;-71
2024/01/22 03:05:05;;;;;;;;;;;;;;;8.79;100.00;100498.38;5051807;28;19928;-70
2024/01/22 03:07:31;;;;;;;;;;;;;;;8.74;100.00;100503.66;5056617;28;19920;-71
2024/01/22 03:09:56;;;;;;;;;;;;;;;8.80;100.00;100489.69;5040649;28;19920;-70
2024/01/22 03:12:22;;;;;;;;;;;;;;;8.62;100.00;100475.94;5055752;28;19935;-72
2024/01/22 03:14:48;;;;;;;;;;;;;;;8.57;100.00;100485.53;5037666;28;19921;-70
2024/01/22 03:17:13;;;;;;;;;;;;;;;8.71;100.00;100469.75;5037321;28;20369;-69
2024/01/22 03:19:38;;;;;;;;;;;;;;;8.49;100.00;100479.50;5072318;28;19923;-70
2024/01/22 03:22:04;;;;;;;;;;;;;;;8.51;100.00;100464.72;5041359;28;20450;-70
2024/01/22 03:24:29;;;;;;;;;;;;;;;8.56;100.00;100455.09;5066053;28;20271;-69
2024/01/22 03:26:54;;;;;;;;;;;;;;;8.52;100.00;100457.72;5063087;28;19994;-70
2024/01/22 03:29:19;;;;;;;;;;;;;;;8.46;100.00;100448.22;5044045;28;20371;-69
2024/01/22 03:31:45;;;;;;;;;;;;;;;8.40;100.00;100459.53;5038397;28;19978;-70
2024/01/22 03:34:10;;;;;;;;;;;;;;;8.39;100.00;100447.38;5057646;28;20434;-69
2024/01/22 03:36:38;;;;;;;;;;;;;;;8.47;100.00;100444.72;5055371;28;19940;-70
2024/01/22 03:39:04;;;;;;;;;;;;;;;8.61;100.00;100445.44;5057753;28;20390;-70
2024/01/22 03:41:29;;;;;;;;;;;;;;;8.59;100.00;100442.00;5056587;28;19948;-69
2024/01/22 03:43:54;;;;;;;;;;;;;;;8.53;100.00;100439.44;5056640;28;19920;-70
2024/01/22 03:46:22;;;;;;;;;;;;;;;8.51;100.00;100448.19;5037001;28;19929;-69
2024/01/22 03:48:47;;;;;;;;;;;;;;;8.64;100.00;100436.72;5054085;28;19917;-70
2024/01/22 03:51:13;;;;;;;;;;;;;;;8.58;100.00;100436.81;5039069;28;19920;-70
2024/01/22 03:53:38;;;;;;;;;;;;;;;8.57;100.00;100432.44;5058528;28;19920;-69
2024/01/22 03:56:06;;;;;;;;;;;;;;;8.54;100.00;100441.16;5038745;28;20302;-70
2024/01/22 03:58:33;;;;;;;;;;;;;;;8.65;100.00;100423.66;5034355;28;20022;-69
2024/01/22 04:00:59;;;;;;;;;;;;;;;8.76;100.00;100433.97;5039445;28;19921;-69
2024/01/22 04:03:24;;;;;;;;;;;;;;;8.77;100.00;100429.63;5055373;28;19917;-69
2024/01/22 04:05:52;;;;;;;;;;;;;;;8.73;100.00;100430.53;5038151;28;20281;-70
2024/01/22 04:08:17;;;;;;;;;;;;;;;8.74;100.00;100424.44;5038189;28;19921;-70
2024/01/22 04:10:43;;;;;;;;;;;;;;;8.74;100.00;100445.34;5072045;28;19916;-69
2024/01/22 04:13:08;;;;;;;;;;;;;;;8.56;100.00;100428.09;5051048;28;19917;-70
2024/01/22 04:15:33;;;;;;;;;;;;;;;8.60;100.00;100420.22;5058922;28;19969;-71
2024/01/22 04:17:59;;;;;;;;;;;;;;;8.47;100.00;100421.22;5045483;28;19931;-70
2024/01/22 04:20:24;;;;;;;;;;;;;;;8.58;100.00;100408.94;5042620;28;19952;-70
2024/01/22 04:22:53;;;;;;;;;;;;;;;8.61;100.00;100406.28;5038105;28;19983;-70
2024/01/22 04:25:18;;;;;;;;;;;;;;;8.64;100.00;100410.59;5039800;28;19925;-70
2024/01/22 04:27:43;;;;;;;;;;;;;;;8.66;100.00;100414.94;5037520;28;20333;-70
2024/01/22 04:30:09;;;;;;;;;;;;;;;8.66;100.00;100420.16;5045187;28;19974;-71
2024/01/22 04:32:35;;;;;;;;;;;;;;;8.60;100.00;100414.97;5041833;28;19943;-69
2024/01/22 04:35:00;;;;;;;;;;;;;;;8.74;100.00;100407.00;5054528;28;19929;-69
2024/01/22 04:37:26;;;;;;;;;;;;;;;8.82;100.00;100404.28;5038325;28;19931;-71
2024/01/22 04:39:51;;;;;;;;;;;;;;;8.91;100.00;100404.22;5054896;28;19932;-65
2024/01/22 04:42:20;;;;;;;;;;;;;;;8.91;100.00;100403.34;5040618;28;19920;-65
2024/01/22 04:44:45;;;;;;;;;;;;;;;9.00;100.00;100395.38;5063177;28;19920;-65
2024/01/22 04:47:10;;;;;;;;;;;;;;;9.02;100.00;100401.44;5040945;28;19929;-65
2024/01/22 04:49:36;;;;;;;;;;;;;;;8.91;100.00;100404.22;5033848;28;19925;-65
2024/01/22 04:52:01;;;;;;;;;;;;;;;8.98;100.00;100395.41;5034146;28;19994;-65
2024/01/22 04:54:27;;;;;;;;;;;;;;;9.02;100.00;100401.44;5032852;28;20315;-65
2024/01/22 04:56:54;;;;;;;;;;;;;;;9.09;100.00;100397.03;5055864;28;20379;-65
2024/01/22 04:59:20;;;;;;;;;;;;;;;9.12;100.00;100397.84;5056261;28;19924;-65
2024/01/22 05:01:46;;;;;;;;;;;;;;;9.09;100.00;100391.78;5041352;28;19924;-66
2024/01/22 05:04:11;;;;;;;;;;;;;;;9.13;100.00;100383.03;5034589;28;19921;-66
2024/01/22 05:06:36;;;;;;;;;;;;;;;9.10;100.00;100383.06;5047564;28;19921;-65
2024/01/22 05:09:04;;;;;;;;;;;;;;;9.16;100.00;100362.06;5044565;28;19929;-65
2024/01/22 05:11:29;;;;;;;;;;;;;;;9.33;100.00;100383.63;5037946;28;19952;-65
2024/01/22 05:13:55;;;;;;;;;;;;;;;9.33;100.00;100370.53;5039435;28;19951;-66
2024/01/22 05:16:21;;;;;;;;;;;;;;;9.29;100.00;100373.22;5053425;28;19920;-66
2024/01/22 05:18:47;;;;;;;;;;;;;;;9.36;100.00;100375.72;5036310;28;19924;-66
2024/01/22 05:21:13;;;;;;;;;;;;;;;9.36;100.00;100374.88;5036642;28;19935;-70
2024/01/22 05:23:41;;;;;;;;;;;;;;;9.42;100.00;100353.84;5036988;28;19927;-71
2024/01/22 05:26:07;;;;;;;;;;;;;;;9.42;100.00;100369.53;5060797;28;20517;-72
2024/01/22 05:28:32;;;;;;;;;;;;;;;9.45;100.00;100358.19;5040355;28;19935;-66
2024/01/22 05:30:58;;;;;;;;;;;;;;;9.47;100.00;100346.81;5041542;28;19921;-66
2024/01/22 05:33:24;;;;;;;;;;;;;;;9.54;100.00;100343.22;5031807;28;20439;-66
2024/01/22 05:35:49;;;;;;;;;;;;;;;9.55;100.00;100367.59;5049593;28;19986;-66
2024/01/22 05:38:14;;;;;;;;;;;;;;;9.54;100.00;100373.75;5032122;28;19928;-66
2024/01/22 05:40:40;;;;;;;;;;;;;;;9.57;100.00;100371.09;5030804;28;19921;-66
2024/01/22 05:43:08;;;;;;;;;;;;;;;9.55;100.00;100354.53;5031179;28;19921;-66
2024/01/22 05:45:34;;;;;;;;;;;;;;;9.66;100.00;100360.47;5048613;28;19921;-66
2024/01/22 05:47:59;;;;;;;;;;;;;;;9.65;100.00;100360.50;5048058;28;19921;-66
2024/01/22 05:50:24;;;;;;;;;;;;;;;9.65;100.00;100361.34;5050725;28;19924;-66
2024/01/22 05:52:50;;;;;;;;;;;;;;;9.81;100.00;100374.19;5031177;28;19955;-66
2024/01/22 05:55:15;;;;;;;;;;;;;;;9.71;100.00;100371.72;5048684;28;20341;-66
2024/01/22 05:57:40;;;;;;;;;;;;;;;9.76;100.00;100376.03;5030119;28;19931;-66
2024/01/22 06:00:09;;;;;;;;;;;;;;;9.71;100.00;100371.72;5033521;28;19936;-66
2024/01/22 06:02:35;;;;;;;;;;;;;;;9.67;100.00;100390.97;5048891;28;20372;-66
2024/01/22 06:05:03;;;;;;;;;;;;;;;9.62;100.00;100379.69;5032026;28;19971;-66
2024/01/22 06:07:28;;;;;;;;;;;;;;;9.56;100.00;100382.44;5043142;28;20015;-65
2024/01/22 06:09:53;;;;;;;;;;;;;;;9.54;100.00;100394.69;5033754;28;20011;-66
2024/01/22 06:12:19;;;;;;;;;;;;;;;9.60;100.00;100402.41;5032684;28;19920;-66
2024/01/22 06:14:44;;;;;;;;;;;;;;;9.61;100.00;100391.06;5050174;28;20304;-66
2024/01/22 06:17:09;;;;;;;;;;;;;;;9.65;100.00;100400.59;5049492;28;19958;-66
2024/01/22 06:19:35;;;;;;;;;;;;;;;9.60;100.00;100397.19;5031883;28;19929;-66
2024/01/22 06:22:00;;;;;;;;;;;;;;;9.56;100.00;100395.50;5041335;28;20023;-66
2024/01/22 06:24:26;;;;;;;;;;;;;;;9.58;100.00;100379.78;5032902;28;19981;-66
2024/01/22 06:26:51;;;;;;;;;;;;;;;9.54;100.00;100371.13;5032479;28;20004;-66
2024/01/22 06:29:16;;;;;;;;;;;;;;;9.59;100.00;100378.91;5033059;28;20364;-66
2024/01/22 06:31:43;;;;;;;;;;;;;;;9.52;100.00;100384.22;5031882;28;19925;-66
2024/01/22 06:34:08;;;;;;;;;;;;;;;9.51;100.00;100384.22;5036619;28;19948;-66
2024/01/22 06:36:34;;;;;;;;;;;;;;;9.51;100.00;100385.13;5052895;28;20528;-66
2024/01/22 06:39:00;;;;;;;;;;;;;;;9.51;100.00;100390.34;5052458;28;19916;-66
2024/01/22 06:41:25;;;;;;;;;;;;;;;9.51;100.00;100397.31;5053995;28;19991;-71
2024/01/22 06:43:50;;;;;;;;;;;;;;;9.57;100.00;100380.66;5033227;28;20412;-71
2024/01/22 06:46:18;;;;;;;;;;;;;;;9.58;100.00;100383.25;5036402;28;20296;-71
2024/01/22 06:48:43;;;;;;;;;;;;;;;9.49;100.00;100391.25;5036053;28;19921;-71
2024/01/22 06:51:11;;;;;;;;;;;;;;;9.55;100.00;100396.38;5053662;28;19924;-71
2024/01/22 06:53:37;;;;;;;;;;;;;;;9.57;100.00;100394.63;5036480;28;19929;-71
2024/01/22 06:56:02;;;;;;;;;;;;;;;9.53;100.00;100419.09;5037198;28;19973;-71
2024/01/22 06:58:28;;;;;;;;;;;;;;;9.53;100.00;100421.72;5052477;28;20007;-71
2024/01/22 07:00:54;;;;;;;;;;;;;;;9.54;100.00;100445.22;5036844;28;20410;-71
2024/01/22 07:03:20;;;;;;;;;;;;;;;9.59;100.00;100434.69;5052808;28;19925;-71
2024/01/22 07:05:45;;;;;;;;;;;;;;;9.58;100.00;100438.19;5037072;28;19929;-71
2024/01/22 07:08:11;;;;;;;;;;;;;;;9.58;100.00;100442.56;5036304;28;19970;-71
2024/01/22 07:10:36;;;;;;;;;;;;;;;9.57;100.00;100431.25;5030688;28;20369;-71
2024/01/22 07:13:01;;;;;;;;;;;;;;;9.62;100.00;100429.41;5032886;28;19955;-71
2024/01/22 07:15:27;;;;;;;;;;;;;;;9.53;100.00;100424.31;5034822;28;19924;-72
2024/01/22 07:17:52;;;;;;;;;;;;;;;9.53;100.00;100446.09;5052797;28;20333;-72
2024/01/22 07:20:18;;;;;;;;;;;;;;;9.56;100.00;100437.34;5034322;28;20349;-71
2024/01/22 07:22:43;;;;;;;;;;;;;;;9.53;100.00;100440.03;5036211;28;19943;-72
2024/01/22 07:25:09;;;;;;;;;;;;;;;9.63;100.00;100435.53;5052770;28;20007;-71
2024/01/22 07:27:39;;;;;;;;;;;;;;;9.64;100.00;100432.00;5052162;28;19916;-71
2024/01/22 07:30:08;;;;;;;;;;;;;;;9.66;100.00;100435.47;5036612;28;20288;-71
2024/01/22 07:32:36;;;;;;;;;;;;;;;9.74;100.00;100436.25;5036359;28;19928;-72
2024/01/22 07:35:03;;;;;;;;;;;;;;;9.74;100.00;100430.13;5036687;28;19971;-71
2024/01/22 07:37:28;;;;;;;;;;;;;;;9.79;100.00;100428.31;5052422;28;19960;-72
2024/01/22 07:39:53;;;;;;;;;;;;;;;9.85;100.00;100430.81;5034778;28;20446;-72
2024/01/22 07:42:19;;;;;;;;;;;;;;;9.78;100.00;100437.91;5034677;28;20016;-71
2024/01/22 07:44:44;;;;;;;;;;;;;;;9.85;100.00;100436.91;5035634;28;20024;-71
2024/01/22 07:47:10;;;;;;;;;;;;;;;9.85;100.00;100443.91;5051729;28;20026;-72
2024/01/22 07:49:35;;;;;;;;;;;;;;;9.85;100.00;100444.75;5035325;28;19939;-72
2024/01/22 07:52:01;;;;;;;;;;;;;;;9.84;100.00;100442.19;5032750;28;19935;-72
2024/01/22 07:54:26;;;;;;;;;;;;;;;9.79;100.00;100451.88;5052060;28;20284;-72
2024/01/22 07:56:51;;;;;;;;;;;;;;;9.84;100.00;100452.63;5034350;28;19929;-72
2024/01/22 07:59:17;;;;;;;;;;;;;;;9.79;100.00;100451.88;5035182;28;19920;-72
2024/01/22 08:01:42;;;;;;;;;;;;;;;9.85;100.00;100463.09;5034864;28;19924;-72
2024/01/22 08:04:07;;;;;;;;;;;;;;;9.85;100.00;100446.53;5031881;28;19959;-71
2024/01/22 08:06:33;;;;;;;;;;;;;;;9.76;100.00;100452.75;5035045;28;19932;-71
2024/01/22 08:08:59;;;;;;;;;;;;;;;9.70;100.00;100456.34;5034482;28;20384;-72
2024/01/22 08:11:24;;;;;;;;;;;;;;;9.66;100.00;100464.25;5052074;28;19936;-73
2024/01/22 08:13:50;;;;;;;;;;;;;;;9.63;100.00;100449.47;5051276;28;20293;-74
2024/01/22 08:16:15;;;;;;;;;;;;;;;9.60;100.00;100456.50;5035366;28;19921;-73
2024/01/22 08:18:40;;;;;;;;;;;;;;;9.57;100.00;100456.53;5034527;28;19921;-73
2024/01/22 08:21:06;;;;;;;;;;;;;;;9.55;100.00;100474.84;5050971;28;19917;-73
2024/01/22 08:23:31;;;;;;;;;;;;;;;9.55;100.00;100469.63;5050809;28;19917;-73
2024/01/22 08:25:56;;;;;;;;;;;;;;;9.54;100.00;100474.00;5034604;28;19925;-72
2024/01/22 08:28:21;;;;;;;;;;;;;;;9.54;100.00;100475.75;5033905;28;19921;-73
2024/01/22 08:30:47;;;;;;;;;;;;;;;9.59;100.00;100492.25;5051557;28;20262;-72
2024/01/22 08:33:12;;;;;;;;;;;;;;;9.58;100.00;100494.88;5038619;28;19921;-72
2024/01/22 08:35:37;;;;;;;;;;;;;;;9.62;100.00;100486.09;5051619;28;19921;-72
2024/01/22 08:38:03;;;;;;;;;;;;;;;9.50;100.00;100481.91;5051640;28;19920;-72
2024/01/22 08:40:29;;;;;;;;;;;;;;;9.53;100.00;100484.50;5051980;28;20024;-72
2024/01/22 08:42:55;;;;;;;;;;;;;;;9.42;100.00;100494.22;5033704;28;20349;-72
2024/01/22 08:45:21;;;;;;;;;;;;;;;9.44;100.00;100489.81;5041892;28;20003;-72
2024/01/22 08:47:48;;;;;;;;;;;;;;;9.40;100.00;100490.78;5056671;28;19916;-72
2024/01/22 08:50:15;;;;;;;;;;;;;;;9.36;100.00;100488.16;5056066;28;19916;-72
2024/01/22 08:52:42;;;;;;;;;;;;;;;9.42;100.00;100483.75;5061988;28;19923;-71
2024/01/22 08:55:07;;;;;;;;;;;;;;;9.39;100.00;100505.56;5054871;28;19920;-72
2024/01/22 08:57:33;;;;;;;;;;;;;;;9.45;100.00;100497.66;5049300;28;19940;-72
2024/01/22 08:59:58;;;;;;;;;;;;;;;9.46;100.00;100490.69;5039344;28;20425;-72
2024/01/22 09:02:24;;;;;;;;;;;;;;;9.45;100.00;100494.19;5053641;28;19925;-72
2024/01/22 09:04:50;;;;;;;;;;;;;;;9.51;100.00;100499.31;5054227;28;19970;-72
2024/01/22 09:07:15;;;;;;;;;;;;;;;9.50;100.00;100480.16;5055896;28;20337;-71
2024/01/22 09:09:41;;;;;;;;;;;;;;;9.52;100.00;100491.47;5050594;28;19939;-72
2024/01/22 09:12:06;;;;;;;;;;;;;;;9.64;100.00;100487.81;5055433;28;19912;-72
2024/01/22 09:14:32;;;;;;;;;;;;;;;9.54;100.00;100488.84;5046500;28;20388;-71
2024/01/22 09:16:57;;;;;;;;;;;;;;;9.52;100.00;100488.88;5065285;28;19919;-72
2024/01/22 09:19:22;;;;;;;;;;;;;;;9.49;100.00;100481.03;5040621;28;19921;-71
2024/01/22 09:21:48;;;;;;;;;;;;;;;9.46;100.00;100488.06;5048174;28;19913;-72
2024/01/22 09:24:13;;;;;;;;;;;;;;;9.40;100.00;100481.16;5069311;28;19913;-72
2024/01/22 09:26:38;;;;;;;;;;;;;;;9.40;100.00;100469.84;5062640;28;19920;-72
2024/01/22 09:29:04;;;;;;;;;;;;;;;9.35;100.00;100475.13;5033605;28;19950;-73
2024/01/22 09:31:30;;;;;;;;;;;;;;;9.38;100.00;100459.41;5028689;28;19916;-74
2024/01/22 09:33:55;;;;;;;;;;;;;;;9.38;100.00;100466.38;5031280;28;20208;-72
2024/01/22 09:36:21;;;;;;;;;;;;;;;9.47;100.00;100454.03;5043943;28;19928;-72
2024/01/22 09:38:46;;;;;;;;;;;;;;;9.52;100.00;100465.31;5030621;28;19918;-71
2024/01/22 09:41:13;;;;;;;;;;;;;;;9.59;100.00;100467.84;5026425;28;20376;-72
2024/01/22 09:43:39;;;;;;;;;;;;;;;9.58;100.00;100466.09;5050455;28;19924;-71
2024/01/22 09:46:05;;;;;;;;;;;;;;;9.62;100.00;100476.50;5050106;28;19928;-72
2024/01/22 09:48:32;;;;;;;;;;;;;;;9.62;100.00;100476.50;5034873;28;20310;-72
2024/01/22 09:51:01;;;;;;;;;;;;;;;9.60;100.00;100475.66;5043710;28;19913;-71
2024/01/22 09:53:27;;;;;;;;;;;;;;;9.56;100.00;100484.44;5049433;28;19971;-71
2024/01/22 09:55:53;;;;;;;;;;;;;;;9.59;100.00;100492.25;5031611;28;19964;-72
2024/01/22 09:58:25;;;;;;;;;;;;;;;9.54;100.00;100501.91;5049548;28;19951;-72
2024/01/22 10:00:52;;;;;;;;;;;;;;;9.54;100.00;100500.16;5050662;28;19923;-72
2024/01/22 10:03:17;;;;;;;;;;;;;;;9.63;100.00;100496.56;5049906;28;20383;-73
2024/01/22 10:05:42;;;;;;;;;;;;;;;9.65;100.00;100505.22;5033980;28;19924;-72
2024/01/22 10:08:08;;;;;;;;;;;;;;;9.71;100.00;100520.88;5051922;28;19971;-71
2024/01/22 10:10:37;;;;;;;;;;;;;;;9.75;100.00;100512.97;5037564;28;19952;-71
2024/01/22 10:13:04;;;;;;;;;;;;;;;9.75;100.00;100554.84;5036987;28;19925;-71
2024/01/22 10:15:33;;;;;;;;;;;;;;;9.71;100.00;100586.28;5054413;28;19913;-70
2024/01/22 10:18:12;;;;;;;;;;;;;;;9.78;100.00;100579.19;5036737;28;20265;-72
2024/01/22 10:20:38;;;;;;;;;;;;;;;9.34;100.00;100581.47;5054171;28;19956;-74
2024/01/22 10:23:03;;;;;;;;;;;;;;;8.90;100.00;100593.22;5049561;28;20409;-74
2024/01/22 10:25:32;;;;;;;;;;;;;;;8.75;100.00;100593.34;5032101;28;19921;-73
2024/01/22 10:28:07;;;;;;;;;;;;;;;8.56;100.00;100601.34;5036732;28;19917;-73
2024/01/22 10:30:33;;;;;;;;;;;;;;;8.58;100.00;100598.72;5053907;28;20334;-73
2024/01/22 10:33:14;;;;;;;;;;;;;;;8.37;100.00;100621.44;5052979;28;19917;-72
2024/01/22 10:35:40;;;;;;;;;;;;;;;8.29;100.00;100624.13;5054170;28;19943;-69
2024/01/22 10:38:06;;;;;;;;;;;;;;;8.29;100.00;100639.78;5052543;28;20516;-70
2024/01/22 10:40:32;;;;;;;;;;;;;;;8.14;100.00;100639.84;5053436;28;20284;-69
2024/01/22 10:42:57;;;;;;;;;;;;;;;8.06;100.00;100642.50;5052409;28;19913;-70
2024/01/22 10:45:25;;;;;;;;;;;;;;;8.00;100.00;100631.22;5036850;28;19963;-69
2024/01/22 10:47:51;;;;;;;;;;;;;;;7.97;100.00;100633.00;5052621;28;19917;-70
2024/01/22 10:50:17;;;;;;;;;;;;;;;7.92;100.00;100647.78;5033683;28;19925;-72
2024/01/22 10:52:42;;;;;;;;;;;;;;;7.89;100.00;100639.13;5024103;28;20269;-71
2024/01/22 10:55:08;;;;;;;;;;;;;;;7.86;100.00;100637.38;5036259;28;19921;-69
2024/01/22 10:57:39;;;;;;;;;;;;;;;7.95;100.00;100641.69;5033339;28;19927;-69
2024/01/22 11:00:07;;;;;;;;;;;;;;;7.94;100.00;100643.44;5053407;28;19924;-70
2024/01/22 11:02:34;;;;;;;;;;;;;;;7.93;100.00;100638.19;5051835;28;20019;-69
2024/01/22 11:05:12;;;;;;;;;;;;;;;7.98;100.00;100629.47;5034752;28;19968;-69
2024/01/22 11:07:39;;;;;;;;;;;;;;;8.04;100.00;100641.63;5048267;28;20261;-69
2024/01/22 11:10:05;;;;;;;;;;;;;;;8.09;100.00;100639.03;5052912;28;19924;-71
2024/01/22 11:12:34;;;;;;;;;;;;;;;8.13;100.00;100632.88;5051896;28;20368;-71
2024/01/22 11:14:59;;;;;;;;;;;;;;;8.21;100.00;100645.94;5052697;28;19917;-71
2024/01/22 11:17:25;;;;;;;;;;;;;;;8.29;100.00;100655.44;5033695;28;19971;-70
2024/01/22 11:19:51;;;;;;;;;;;;;;;8.44;100.00;100657.13;5032715;28;19971;-71
2024/01/22 11:22:23;;;;;;;;;;;;;;;8.52;100.00;100656.22;5035646;28;19920;-70
2024/01/22 11:25:01;;;;;;;;;;;;;;;8.67;100.00;100663.94;5052035;28;20015;-70
2024/01/22 11:27:37;;;;;;;;;;;;;;;8.76;100.00;100663.03;5051729;28;19917;-70
2024/01/22 11:30:21;;;;;;;;;;;;;;;8.78;100.00;100666.50;5056249;28;20357;-70
2024/01/22 11:32:47;;;;;;;;;;;;;;;8.71;100.00;100677.88;5052084;28;19924;-70
2024/01/22 11:35:30;;;;;;;;;;;;;;;8.73;100.00;100676.09;5052421;28;19932;-70
2024/01/22 11:37:56;;;;;;;;;;;;;;;8.73;100.00;100686.56;5049655;28;19921;-70
2024/01/22 11:40:42;;;;;;;;;;;;;;;8.83;100.00;100688.22;5052280;28;19986;-71
2024/01/22 11:43:07;;;;;;;;;;;;;;;8.91;100.00;100690.81;5051454;28;20270;-70
2024/01/22 11:45:33;;;;;;;;;;;;;;;8.91;100.00;100690.81;5052401;28;20376;-70
2024/01/22 11:47:58;;;;;;;;;;;;;;;8.99;100.00;100695.09;5051759;28;20381;-71
2024/01/22 11:50:24;;;;;;;;;;;;;;;9.62;100.00;100701.50;5035645;28;20035;-71
2024/01/22 11:52:49;;;;;;;;;;;;;;;11.12;100.00;100707.47;5051747;28;20003;-70
2024/01/22 11:55:14;;;;;;;;;;;;;;;12.36;96.88;100706.03;5052307;28;19958;-71
2024/01/22 11:57:40;;;;;;;;;;;;;;;13.48;90.55;100723.63;5034006;28;19959;-71
2024/01/22 12:00:05;;;;;;;;;;;;;;;14.04;89.14;100725.63;5035066;28;19924;-71
2024/01/22 12:02:34;;;;;;;;;;;;;;;14.43;88.71;100721.91;5051543;28;19970;-69
2024/01/22 12:05:10;;;;;;;;;;;;;;;14.86;84.80;100730.31;5052058;28;20020;-69
2024/01/22 12:07:45;;;;;;;;;;;;;;;15.36;81.04;100724.31;5050853;28;19917;-71
2024/01/22 12:10:20;;;;;;;;;;;;;;;16.16;78.34;100724.19;5043968;28;19921;-70
2024/01/22 12:12:50;;;;;;;;;;;;;;;16.54;73.46;100731.59;5050926;28;19978;-70
2024/01/22 12:15:15;;;;;;;;;;;;;;;16.22;74.71;100734.53;5032694;28;19925;-69
2024/01/22 12:17:44;;;;;;;;;;;;;;;16.48;78.58;100710.63;5030894;28;19924;-72
2024/01/22 12:20:10;;;;;;;;;;;;;;;16.05;70.69;100721.06;5024341;28;19921;-71
2024/01/22 12:22:35;;;;;;;;;;;;;;;15.84;73.91;100734.09;5034245;28;19924;-71
2024/01/22 12:25:12;;;;;;;;;;;;;;;16.13;73.24;100726.06;5035281;28;19925;-71
2024/01/22 12:27:37;;;;;;;;;;;;;;;15.85;70.97;100740.28;5050963;28;19913;-71
2024/01/22 12:30:16;;;;;;;;;;;;;;;15.59;70.42;100745.50;5032905;28;19917;-69
2024/01/22 12:32:51;;;;;;;;;;;;;;;15.93;70.12;100752.31;5050720;28;19925;-70
2024/01/22 12:35:20;;;;;;;;;;;;;;;15.10;66.14;100755.06;5051532;28;19920;-71